createdAt,value
2017-10-11T00:00:24.434Z,93.81
2017-10-11T00:02:58.965Z,94.11
2017-10-11T00:05:33.676Z,93.97
2017-10-11T00:08:08.479Z,94.27
2017-10-11T00:10:43.253Z,94.43
2017-10-11T00:13:18.021Z,94.84
2017-10-11T00:15:53.065Z,94.95
2017-10-11T00:18:28.213Z,95.06
2017-10-11T00:21:02.725Z,95.22
2017-10-11T00:23:37.269Z,95.03
2017-10-11T00:26:12.376Z,94.92
2017-10-11T00:28:47.048Z,94.83
2017-10-11T00:31:22.084Z,94.48
2017-10-11T00:33:57.105Z,94.47
2017-10-11T00:36:31.937Z,94.17
2017-10-11T00:39:06.888Z,93.93
2017-10-11T00:41:41.726Z,93.79
2017-10-11T00:44:16.445Z,93.50
2017-10-11T00:46:52.053Z,92.67
2017-10-11T00:49:26.561Z,92.90
2017-10-11T00:52:01.666Z,92.93
2017-10-11T00:54:36.809Z,92.43
2017-10-11T00:57:12.145Z,92.35
2017-10-11T00:59:47.400Z,92.57
2017-10-11T01:02:21.538Z,92.75
2017-10-11T01:04:56.886Z,92.44
2017-10-11T01:07:31.494Z,92.19
2017-10-11T01:10:06.877Z,92.34
2017-10-11T01:12:41.539Z,92.28
2017-10-11T01:15:16.441Z,92.48
2017-10-11T01:17:50.922Z,92.45
2017-10-11T01:20:25.149Z,92.52
2017-10-11T01:22:59.896Z,92.51
2017-10-11T01:25:33.977Z,92.48
2017-10-11T01:28:08.086Z,92.51
2017-10-11T01:30:42.968Z,92.48
2017-10-11T01:33:17.020Z,92.71
2017-10-11T01:35:51.617Z,92.44
2017-10-11T01:38:26.424Z,92.22
2017-10-11T01:41:01.454Z,92.29
2017-10-11T01:43:35.872Z,92.58
2017-10-11T01:46:10.704Z,92.08
2017-10-11T01:48:45.326Z,92.40
2017-10-11T01:51:20.365Z,92.54
2017-10-11T01:53:55.369Z,92.67
2017-10-11T01:56:29.525Z,92.78
2017-10-11T01:59:04.309Z,92.67
2017-10-11T02:01:39.529Z,92.26
2017-10-11T02:04:14.833Z,92.54
2017-10-11T02:06:49.468Z,92.61
2017-10-11T02:09:23.657Z,92.67
2017-10-11T02:11:58.773Z,92.80
2017-10-11T02:14:33.681Z,92.77
2017-10-11T02:17:08.629Z,92.95
2017-10-11T02:19:44.192Z,93.01
2017-10-11T02:22:19.133Z,92.98
2017-10-11T02:24:53.784Z,93.15
2017-10-11T02:27:29.228Z,93.08
2017-10-11T02:32:43.280Z,93.44
2017-10-11T02:35:18.145Z,93.19
2017-10-11T02:37:53.217Z,93.24
2017-10-11T02:40:28.133Z,93.23
2017-10-11T02:43:03.029Z,93.14
2017-10-11T02:45:37.869Z,92.95
2017-10-11T02:48:12.812Z,93.41
2017-10-11T02:50:47.625Z,93.36
2017-10-11T02:53:22.398Z,93.34
2017-10-11T02:55:57.561Z,93.12
2017-10-11T02:58:32.550Z,93.31
2017-10-11T03:01:07.863Z,93.08
2017-10-11T03:03:42.724Z,93.08
2017-10-11T03:06:17.789Z,93.01
2017-10-11T03:08:52.684Z,92.71
2017-10-11T03:11:27.101Z,92.87
2017-10-11T03:14:02.423Z,92.88
2017-10-11T03:16:36.933Z,92.57
2017-10-11T03:19:11.891Z,92.56
2017-10-11T03:21:46.537Z,92.29
2017-10-11T03:24:21.582Z,92.52
2017-10-11T03:26:56.745Z,92.48
2017-10-11T03:29:32.005Z,92.51
2017-10-11T03:32:06.505Z,92.17
2017-10-11T03:34:41.024Z,91.94
2017-10-11T03:37:15.960Z,92.29
2017-10-11T03:39:51.593Z,92.09
2017-10-11T03:42:26.289Z,92.41
2017-10-11T03:45:01.637Z,92.24
2017-10-11T03:47:36.596Z,92.39
2017-10-11T03:50:11.565Z,92.63
2017-10-11T03:52:46.397Z,92.72
2017-10-11T03:55:21.474Z,92.67
2017-10-11T03:57:56.223Z,92.62
2017-10-11T04:00:31.285Z,92.74
2017-10-11T04:03:06.317Z,93.03
2017-10-11T04:05:41.818Z,93.03
2017-10-11T04:08:16.876Z,92.81
2017-10-11T04:10:51.993Z,92.61
2017-10-11T04:13:27.357Z,92.76
2017-10-11T04:16:02.304Z,92.49
2017-10-11T04:18:37.144Z,92.46
2017-10-11T04:21:12.070Z,92.45
2017-10-11T04:23:46.756Z,91.97
2017-10-11T04:26:21.645Z,92.00
2017-10-11T04:28:56.428Z,92.17
2017-10-11T04:31:31.481Z,92.18
2017-10-11T04:34:06.118Z,92.34
2017-10-11T04:36:40.713Z,92.70
2017-10-11T04:39:15.563Z,93.25
2017-10-11T04:41:50.453Z,93.77
2017-10-11T04:44:25.604Z,94.08
2017-10-11T04:47:00.376Z,94.23
2017-10-11T04:49:34.912Z,94.13
2017-10-11T04:52:10.065Z,94.22
2017-10-11T04:54:44.509Z,95.19
2017-10-11T04:57:19.685Z,95.91
2017-10-11T04:59:54.641Z,96.67
2017-10-11T05:02:29.189Z,97.17
2017-10-11T05:05:03.769Z,97.56
2017-10-11T05:07:38.864Z,97.88
2017-10-11T05:10:13.787Z,98.05
2017-10-11T05:12:48.680Z,98.11
2017-10-11T05:15:23.621Z,98.36
2017-10-11T05:17:58.781Z,98.30
2017-10-11T05:20:33.124Z,98.23
2017-10-11T05:23:08.217Z,97.90
2017-10-11T05:25:42.928Z,97.95
2017-10-11T05:28:17.777Z,97.84
2017-10-11T05:30:52.789Z,97.49
2017-10-11T05:33:27.630Z,97.38
2017-10-11T05:36:02.890Z,97.51
2017-10-11T05:38:38.133Z,97.36
2017-10-11T05:41:12.854Z,97.37
2017-10-11T05:43:47.485Z,97.26
2017-10-11T05:46:22.632Z,96.77
2017-10-11T05:48:57.660Z,96.62
2017-10-11T05:51:32.449Z,96.72
2017-10-11T05:54:07.546Z,96.45
2017-10-11T05:56:42.536Z,96.51
2017-10-11T05:59:17.586Z,96.75
2017-10-11T06:01:52.316Z,96.21
2017-10-11T06:04:27.569Z,96.13
2017-10-11T06:07:02.782Z,96.19
2017-10-11T06:09:37.468Z,96.17
2017-10-11T06:12:12.345Z,96.16
2017-10-11T06:14:46.877Z,95.75
2017-10-11T06:17:21.820Z,95.34
2017-10-11T06:19:57.009Z,95.24
2017-10-11T06:22:31.681Z,95.08
2017-10-11T06:25:06.441Z,94.81
2017-10-11T06:27:41.433Z,94.75
2017-10-11T06:30:16.069Z,94.88
2017-10-11T06:32:51.021Z,94.48
2017-10-11T06:35:26.358Z,94.44
2017-10-11T06:38:01.677Z,94.45
2017-10-11T06:40:36.112Z,93.94
2017-10-11T06:43:11.237Z,94.09
2017-10-11T06:45:45.745Z,93.62
2017-10-11T06:48:20.921Z,93.50
2017-10-11T06:50:56.254Z,93.42
2017-10-11T06:53:30.942Z,93.34
2017-10-11T06:56:06.377Z,92.96
2017-10-11T06:58:41.210Z,92.58
2017-10-11T07:01:16.490Z,92.87
2017-10-11T07:03:51.033Z,92.52
2017-10-11T07:06:26.317Z,92.56
2017-10-11T07:09:01.349Z,92.38
2017-10-11T07:11:36.553Z,92.41
2017-10-11T07:14:11.761Z,92.08
2017-10-11T07:16:46.409Z,92.41
2017-10-11T07:19:21.357Z,92.03
2017-10-11T07:21:55.767Z,92.18
2017-10-11T07:24:31.193Z,92.20
2017-10-11T07:27:06.529Z,92.01
2017-10-11T07:29:41.466Z,92.06
2017-10-11T07:32:16.988Z,92.07
2017-10-11T07:34:52.406Z,92.05
2017-10-11T07:37:27.385Z,91.57
2017-10-11T07:40:02.410Z,91.73
2017-10-11T07:42:37.446Z,90.76
2017-10-11T07:45:12.441Z,91.04
2017-10-11T07:47:46.906Z,91.45
2017-10-11T07:50:22.197Z,91.65
2017-10-11T07:52:57.406Z,91.47
2017-10-11T07:55:32.549Z,91.27
2017-10-11T07:58:07.073Z,91.26
2017-10-11T08:00:41.784Z,91.24
2017-10-11T08:03:17.004Z,90.81
2017-10-11T08:05:51.069Z,91.08
2017-10-11T08:08:26.396Z,91.19
2017-10-11T08:11:01.251Z,91.25
2017-10-11T08:13:36.453Z,91.38
2017-10-11T08:16:11.537Z,91.28
2017-10-11T08:18:46.884Z,91.33
2017-10-11T08:21:22.119Z,90.59
2017-10-11T08:23:57.621Z,90.48
2017-10-11T08:26:32.500Z,90.29
2017-10-11T08:29:07.827Z,90.77
2017-10-11T08:31:42.800Z,91.36
2017-10-11T08:34:18.013Z,91.23
2017-10-11T08:36:52.954Z,90.99
2017-10-11T08:39:28.060Z,91.17
2017-10-11T08:42:02.993Z,90.89
2017-10-11T08:44:37.901Z,90.92
2017-10-11T08:47:12.862Z,91.09
2017-10-11T08:49:47.582Z,91.08
2017-10-11T08:52:22.431Z,90.91
2017-10-11T08:54:57.549Z,91.04
2017-10-11T08:57:32.361Z,91.02
2017-10-11T09:00:07.068Z,91.16
2017-10-11T09:02:42.197Z,90.57
2017-10-11T09:05:17.405Z,90.80
2017-10-11T09:07:52.349Z,90.73
2017-10-11T09:10:27.277Z,90.80
2017-10-11T09:13:02.269Z,90.93
2017-10-11T09:15:37.397Z,91.27
2017-10-11T09:18:12.117Z,91.10
2017-10-11T09:20:47.473Z,90.93
2017-10-11T09:23:22.445Z,91.29
2017-10-11T09:25:57.521Z,90.85
2017-10-11T09:28:32.078Z,90.69
2017-10-11T09:31:07.228Z,90.78
2017-10-11T09:33:42.189Z,91.02
2017-10-11T09:36:17.407Z,91.18
2017-10-11T09:38:52.546Z,90.66
2017-10-11T09:41:27.414Z,90.39
2017-10-11T09:44:02.415Z,89.90
2017-10-11T09:46:37.268Z,90.12
2017-10-11T09:49:12.117Z,89.47
2017-10-11T09:51:46.789Z,89.38
2017-10-11T09:54:21.480Z,89.59
2017-10-11T09:56:56.705Z,89.59
2017-10-11T09:59:31.837Z,89.36
2017-10-11T10:02:06.946Z,88.98
2017-10-11T10:04:41.789Z,88.94
2017-10-11T10:07:16.329Z,88.43
2017-10-11T10:09:51.588Z,87.95
2017-10-11T10:12:26.270Z,88.44
2017-10-11T10:15:00.696Z,88.05
2017-10-11T10:17:35.348Z,87.04
2017-10-11T10:20:10.233Z,86.94
2017-10-11T10:22:45.033Z,87.27
2017-10-11T10:25:20.040Z,87.40
2017-10-11T10:27:54.789Z,86.53
2017-10-11T10:30:29.252Z,85.86
2017-10-11T10:33:04.109Z,86.36
2017-10-11T10:35:39.361Z,85.75
2017-10-11T10:38:14.124Z,85.80
2017-10-11T10:40:49.337Z,84.91
2017-10-11T10:43:25.401Z,84.93
2017-10-11T10:46:00.202Z,85.40
2017-10-11T10:48:35.617Z,85.38
2017-10-11T10:51:10.300Z,85.51
2017-10-11T10:53:45.410Z,84.64
2017-10-11T10:56:20.456Z,84.84
2017-10-11T10:58:55.413Z,83.92
2017-10-11T11:01:30.487Z,83.93
2017-10-11T11:04:06.114Z,83.82
2017-10-11T11:06:40.676Z,84.74
2017-10-11T11:09:15.636Z,83.83
2017-10-11T11:11:50.453Z,84.17
2017-10-11T11:14:25.728Z,84.25
2017-10-11T11:17:00.385Z,84.32
2017-10-11T11:19:35.409Z,83.93
2017-10-11T11:22:10.237Z,84.03
2017-10-11T11:24:45.077Z,84.43
2017-10-11T11:27:20.293Z,84.68
2017-10-11T11:29:55.201Z,83.80
2017-10-11T11:32:29.929Z,84.09
2017-10-11T11:35:04.713Z,83.87
2017-10-11T11:37:39.769Z,84.16
2017-10-11T11:40:14.609Z,84.57
2017-10-11T11:42:49.905Z,85.17
2017-10-11T11:45:24.796Z,85.31
2017-10-11T11:47:59.772Z,84.58
2017-10-11T11:50:35.102Z,84.92
2017-10-11T11:53:09.841Z,85.75
2017-10-11T11:55:45.021Z,85.80
2017-10-11T11:58:20.169Z,85.84
2017-10-11T12:00:55.061Z,86.07
2017-10-11T12:03:29.980Z,86.05
2017-10-11T12:06:04.707Z,86.28
2017-10-11T12:08:39.755Z,86.33
2017-10-11T12:11:15.378Z,87.05
2017-10-11T12:13:50.438Z,86.52
2017-10-11T12:16:25.285Z,86.91
2017-10-11T12:19:00.229Z,86.51
2017-10-11T12:21:34.708Z,86.92
2017-10-11T12:24:09.848Z,86.80
2017-10-11T12:26:45.236Z,86.24
2017-10-11T12:29:20.000Z,85.75
2017-10-11T12:31:55.150Z,86.04
2017-10-11T12:34:29.894Z,85.74
2017-10-11T12:37:05.544Z,85.40
2017-10-11T12:39:40.767Z,85.42
2017-10-11T12:42:15.281Z,84.97
2017-10-11T12:44:50.468Z,83.85
2017-10-11T12:47:25.285Z,83.81
2017-10-11T12:50:00.030Z,82.92
2017-10-11T12:52:34.852Z,82.52
2017-10-11T12:55:09.847Z,82.31
2017-10-11T12:57:44.784Z,81.26
2017-10-11T13:00:19.969Z,81.23
2017-10-11T13:02:54.892Z,80.41
2017-10-11T13:05:30.213Z,79.18
2017-10-11T13:08:05.149Z,79.49
2017-10-11T13:10:39.805Z,80.18
2017-10-11T13:13:14.729Z,80.45
2017-10-11T13:15:50.040Z,80.59
2017-10-11T13:18:24.457Z,80.31
2017-10-11T13:20:59.673Z,80.13
2017-10-11T13:23:34.821Z,79.62
2017-10-11T13:26:09.305Z,79.93
2017-10-11T13:28:44.352Z,80.14
2017-10-11T13:31:19.410Z,79.74
2017-10-11T13:33:54.323Z,78.98
2017-10-11T13:36:29.217Z,79.21
2017-10-11T13:39:03.801Z,78.71
2017-10-11T13:41:38.256Z,78.17
2017-10-11T13:44:13.449Z,78.42
2017-10-11T13:46:48.053Z,77.79
2017-10-11T13:49:22.921Z,77.66
2017-10-11T13:51:57.693Z,78.05
2017-10-11T13:54:32.661Z,78.71
2017-10-11T13:57:07.674Z,78.34
2017-10-11T13:59:43.024Z,79.32
2017-10-11T14:02:18.229Z,79.86
2017-10-11T14:04:53.225Z,79.74
2017-10-11T14:07:27.881Z,79.55
2017-10-11T14:10:03.261Z,79.62
2017-10-11T14:12:38.192Z,79.11
2017-10-11T14:15:13.147Z,78.82
2017-10-11T14:17:48.167Z,79.61
2017-10-11T14:20:23.068Z,79.50
2017-10-11T14:22:57.864Z,80.21
2017-10-11T14:25:32.900Z,79.85
2017-10-11T14:28:07.844Z,79.50
2017-10-11T14:30:42.640Z,79.19
2017-10-11T14:33:17.477Z,79.28
2017-10-11T14:35:52.489Z,79.38
2017-10-11T14:38:27.012Z,79.39
2017-10-11T14:41:01.821Z,79.60
2017-10-11T14:43:36.392Z,79.67
2017-10-11T14:46:11.647Z,79.16
2017-10-11T14:48:46.288Z,79.22
2017-10-11T14:51:21.034Z,79.33
2017-10-11T14:53:56.033Z,79.68
2017-10-11T14:56:31.484Z,79.53
2017-10-11T14:59:06.389Z,79.17
2017-10-11T15:01:41.002Z,79.59
2017-10-11T15:04:15.859Z,79.74
2017-10-11T15:06:50.956Z,78.70
2017-10-11T15:09:25.773Z,79.32
2017-10-11T15:12:01.091Z,78.87
2017-10-11T15:14:35.909Z,78.36
2017-10-11T15:17:10.394Z,78.94
2017-10-11T15:19:45.133Z,79.46
2017-10-11T15:22:20.374Z,79.19
2017-10-11T15:24:55.313Z,79.25
2017-10-11T15:27:30.545Z,79.84
2017-10-11T15:30:05.603Z,79.75
2017-10-11T15:32:40.718Z,79.45
2017-10-11T15:35:16.098Z,79.08
2017-10-11T15:37:51.513Z,78.85
2017-10-11T15:40:26.507Z,79.07
2017-10-11T15:43:01.402Z,79.47
2017-10-11T15:45:35.469Z,79.66
2017-10-11T15:48:11.832Z,79.18
2017-10-11T15:50:46.555Z,79.12
2017-10-11T15:53:21.352Z,79.29
2017-10-11T15:55:55.864Z,79.93
2017-10-11T15:58:30.806Z,79.96
2017-10-11T16:01:05.641Z,79.27
2017-10-11T16:03:40.368Z,79.35
2017-10-11T16:06:15.201Z,79.73
2017-10-11T16:08:50.289Z,79.62
2017-10-11T16:11:24.658Z,80.29
2017-10-11T16:13:59.081Z,79.86
2017-10-11T16:16:34.036Z,80.69
2017-10-11T16:19:08.908Z,80.54
2017-10-11T16:21:43.922Z,80.61
2017-10-11T16:24:18.801Z,80.58
2017-10-11T16:26:53.646Z,80.83
2017-10-11T16:29:28.969Z,81.20
2017-10-11T16:32:03.582Z,80.42
2017-10-11T16:34:38.501Z,80.42
2017-10-11T16:37:13.463Z,80.14
2017-10-11T16:39:48.458Z,80.31
2017-10-11T16:42:23.396Z,80.22
2017-10-11T16:44:58.782Z,80.19
2017-10-11T16:47:33.801Z,80.22
2017-10-11T16:50:08.938Z,79.85
2017-10-11T16:52:44.057Z,80.37
2017-10-11T16:55:19.460Z,80.08
2017-10-11T16:57:54.848Z,79.89
2017-10-11T17:00:29.701Z,80.12
2017-10-11T17:03:04.216Z,80.04
2017-10-11T17:05:39.121Z,79.58
2017-10-11T17:08:14.373Z,79.49
2017-10-11T17:10:49.448Z,79.77
2017-10-11T17:13:24.304Z,79.34
2017-10-11T17:15:59.209Z,79.16
2017-10-11T17:18:33.952Z,78.86
2017-10-11T17:21:08.477Z,78.66
2017-10-11T17:23:43.568Z,78.37
2017-10-11T17:26:18.481Z,77.87
2017-10-11T17:28:53.654Z,77.30
2017-10-11T17:31:28.778Z,77.82
2017-10-11T17:34:03.793Z,77.17
2017-10-11T17:36:38.729Z,77.61
2017-10-11T17:39:13.840Z,77.88
2017-10-11T17:41:48.912Z,78.11
2017-10-11T17:44:23.834Z,78.47
2017-10-11T17:46:58.431Z,78.48
2017-10-11T17:49:33.334Z,78.54
2017-10-11T17:52:08.452Z,78.92
2017-10-11T17:54:43.538Z,79.12
2017-10-11T17:57:18.907Z,79.17
2017-10-11T17:59:53.841Z,79.56
2017-10-11T18:02:29.016Z,79.37
2017-10-11T18:05:04.224Z,79.66
2017-10-11T18:07:39.155Z,79.78
2017-10-11T18:10:14.281Z,80.06
2017-10-11T18:12:49.324Z,80.50
2017-10-11T18:15:24.161Z,80.71
2017-10-11T18:17:59.036Z,80.48
2017-10-11T18:20:34.246Z,79.94
2017-10-11T18:23:09.092Z,80.34
2017-10-11T18:25:44.328Z,79.91
2017-10-11T18:28:19.397Z,80.13
2017-10-11T18:30:54.610Z,79.82
2017-10-11T18:33:29.582Z,80.08
2017-10-11T18:36:04.865Z,80.10
2017-10-11T18:38:39.745Z,80.12
2017-10-11T18:41:14.749Z,80.07
2017-10-11T18:43:49.820Z,80.51
2017-10-11T18:46:24.781Z,80.13
2017-10-11T18:48:59.953Z,80.08
2017-10-11T18:51:34.789Z,80.48
2017-10-11T18:54:09.713Z,80.29
2017-10-11T18:56:44.633Z,80.25
2017-10-11T18:59:19.568Z,80.42
2017-10-11T19:01:54.824Z,80.35
2017-10-11T19:04:29.773Z,80.06
2017-10-11T19:07:04.781Z,80.40
2017-10-11T19:09:39.928Z,80.41
2017-10-11T19:12:15.273Z,80.41
2017-10-11T19:14:50.212Z,80.56
2017-10-11T19:17:25.244Z,80.70
2017-10-11T19:20:00.297Z,81.21
2017-10-11T19:22:35.228Z,81.33
2017-10-11T19:25:10.181Z,80.99
2017-10-11T19:27:45.009Z,81.46
2017-10-11T19:30:20.032Z,81.68
2017-10-11T19:32:55.113Z,82.07
2017-10-11T19:35:30.141Z,81.91
2017-10-11T19:38:05.237Z,82.18
2017-10-11T19:40:39.961Z,82.30
2017-10-11T19:43:14.904Z,82.78
2017-10-11T19:45:49.929Z,82.95
2017-10-11T19:48:24.612Z,82.80
2017-10-11T19:51:00.202Z,82.91
2017-10-11T19:53:34.333Z,83.38
2017-10-11T19:56:09.708Z,84.08
2017-10-11T19:58:44.321Z,84.34
2017-10-11T20:01:18.832Z,84.00
2017-10-11T20:03:53.257Z,84.12
2017-10-11T20:06:28.084Z,84.42
2017-10-11T20:09:03.037Z,84.96
2017-10-11T20:11:38.180Z,84.78
2017-10-11T20:14:12.984Z,85.05
2017-10-11T20:16:48.341Z,84.84
2017-10-11T20:19:23.565Z,84.72
2017-10-11T20:21:58.353Z,84.75
2017-10-11T20:24:33.520Z,84.70
2017-10-11T20:27:08.576Z,84.86
2017-10-11T20:29:43.696Z,84.95
2017-10-11T20:32:18.508Z,85.30
2017-10-11T20:34:53.229Z,85.44
2017-10-11T20:37:28.166Z,85.22
2017-10-11T20:40:02.937Z,85.39
2017-10-11T20:42:38.077Z,85.49
2017-10-11T20:45:13.196Z,85.14
2017-10-11T20:47:48.379Z,85.62
2017-10-11T20:50:23.053Z,85.86
2017-10-11T20:52:57.809Z,85.47
2017-10-11T20:55:32.956Z,85.53
2017-10-11T20:58:07.765Z,85.62
2017-10-11T21:00:42.693Z,85.36
2017-10-11T21:03:17.821Z,85.49
2017-10-11T21:05:52.445Z,85.11
2017-10-11T21:08:27.280Z,85.26
2017-10-11T21:11:02.328Z,85.38
2017-10-11T21:13:37.444Z,85.29
2017-10-11T21:16:12.209Z,85.13
2017-10-11T21:18:46.825Z,84.40
2017-10-11T21:21:21.740Z,84.26
2017-10-11T21:23:56.970Z,84.15
2017-10-11T21:26:31.753Z,83.66
2017-10-11T21:29:06.485Z,83.60
2017-10-11T21:31:41.281Z,83.42
2017-10-11T21:34:16.397Z,83.67
2017-10-11T21:36:51.953Z,83.42
2017-10-11T21:39:27.121Z,83.74
2017-10-11T21:42:02.045Z,83.75
2017-10-11T21:44:36.785Z,83.52
2017-10-11T21:47:12.158Z,83.33
2017-10-11T21:49:46.761Z,82.78
2017-10-11T21:52:21.553Z,83.02
2017-10-11T21:54:57.516Z,83.35
2017-10-11T21:57:32.512Z,83.92
2017-10-11T22:00:07.225Z,83.99
2017-10-11T22:02:42.268Z,83.35
2017-10-11T22:05:17.056Z,83.56
2017-10-11T22:07:51.805Z,83.43
2017-10-11T22:10:27.066Z,83.25
2017-10-11T22:13:02.112Z,83.06
2017-10-11T22:15:36.669Z,83.04
2017-10-11T22:18:11.721Z,83.17
2017-10-11T22:20:46.700Z,83.20
2017-10-11T22:23:21.724Z,83.10
2017-10-11T22:25:56.681Z,83.06
2017-10-11T22:28:31.168Z,82.61
2017-10-11T22:31:06.204Z,82.67
2017-10-11T22:33:41.213Z,82.01
2017-10-11T22:36:15.748Z,82.14
2017-10-11T22:38:50.924Z,82.22
2017-10-11T22:41:25.728Z,81.87
2017-10-11T22:44:00.278Z,81.97
2017-10-11T22:46:35.284Z,82.44
2017-10-11T22:49:11.800Z,82.03
2017-10-11T22:51:46.758Z,82.17
2017-10-11T22:54:22.017Z,82.22
2017-10-11T22:56:56.596Z,82.07
2017-10-11T22:59:31.284Z,81.44
2017-10-11T23:02:06.088Z,81.47
2017-10-11T23:04:41.028Z,81.83
2017-10-11T23:07:16.089Z,81.72
2017-10-11T23:09:51.337Z,81.44
2017-10-11T23:12:26.472Z,81.41
2017-10-11T23:15:01.293Z,81.51
2017-10-11T23:17:36.324Z,81.64
2017-10-11T23:20:11.465Z,81.18
2017-10-11T23:22:46.485Z,81.11
2017-10-11T23:25:20.998Z,81.09
2017-10-11T23:27:56.041Z,81.21
2017-10-11T23:30:30.477Z,81.35
2017-10-11T23:33:05.277Z,81.26
2017-10-11T23:35:39.921Z,80.97
2017-10-11T23:38:14.758Z,81.12
2017-10-11T23:40:49.629Z,80.94
2017-10-11T23:43:24.837Z,80.94
2017-10-11T23:45:59.589Z,80.71
2017-10-11T23:48:34.673Z,80.55
2017-10-11T23:51:09.905Z,80.44
2017-10-11T23:53:44.900Z,80.47
2017-10-11T23:56:19.997Z,80.14
2017-10-11T23:58:54.957Z,80.38
